createdAt,value
2018-09-22T00:02:05.570Z,97937.91
2018-09-22T00:04:34.076Z,97946.48
2018-09-22T00:07:02.567Z,97944.31
2018-09-22T00:09:31.166Z,97940.08
2018-09-22T00:11:59.702Z,97935.36
2018-09-22T00:14:28.210Z,97941.76
2018-09-22T00:16:56.939Z,97951.59
2018-09-22T00:19:25.539Z,97947.33
2018-09-22T00:21:54.191Z,97954.16
2018-09-22T00:24:22.713Z,97948.61
2018-09-22T00:26:51.265Z,97958.45
2018-09-22T00:29:19.834Z,97968.69
2018-09-22T00:31:48.413Z,97966.13
2018-09-22T00:34:16.970Z,97950.31
2018-09-22T00:36:45.486Z,97954.21
2018-09-22T00:39:14.027Z,97961.41
2018-09-22T00:41:42.630Z,97951.59
2018-09-22T00:44:11.217Z,97952.00
2018-09-22T00:46:40.055Z,97960.55
2018-09-22T00:49:08.711Z,97963.12
2018-09-22T00:51:37.236Z,97965.24
2018-09-22T00:54:05.808Z,97978.48
2018-09-22T00:56:34.361Z,97977.99
2018-09-22T00:59:02.935Z,97977.59
2018-09-22T01:01:31.734Z,97980.55
2018-09-22T01:04:00.351Z,97977.59
2018-09-22T01:06:28.878Z,97974.64
2018-09-22T01:08:57.422Z,97969.03
2018-09-22T01:11:26.007Z,97969.03
2018-09-22T01:13:54.594Z,97976.72
2018-09-22T01:16:23.158Z,97984.39
2018-09-22T01:18:51.760Z,97984.83
2018-09-22T01:21:20.315Z,97990.39
2018-09-22T01:23:48.874Z,97992.95
2018-09-22T01:26:18.267Z,97995.12
2018-09-22T01:28:46.877Z,98010.42
2018-09-22T01:31:15.414Z,98025.78
2018-09-22T01:33:43.891Z,97864.83
2018-09-22T01:36:12.466Z,98027.06
2018-09-22T01:38:40.994Z,98028.34
2018-09-22T01:41:09.523Z,98031.36
2018-09-22T01:43:38.701Z,97853.70
2018-09-22T01:46:07.251Z,98030.85
2018-09-22T01:48:35.806Z,98034.31
2018-09-22T01:51:04.331Z,98033.03
2018-09-22T01:53:32.840Z,98033.03
2018-09-22T01:56:01.345Z,98033.86
2018-09-22T01:58:29.887Z,98027.46
2018-09-22T02:00:58.478Z,98039.44
2018-09-22T02:03:27.000Z,98037.30
2018-09-22T02:05:55.592Z,98032.98
2018-09-22T02:08:24.103Z,98040.66
2018-09-22T02:10:52.597Z,98046.27
2018-09-22T02:13:21.232Z,98052.61
2018-09-22T02:15:49.779Z,98047.55
2018-09-22T02:18:18.399Z,98059.02
2018-09-22T02:20:46.958Z,98053.95
2018-09-22T02:23:15.470Z,97274.07
2018-09-22T02:25:44.096Z,98045.38
2018-09-22T02:28:12.688Z,98054.73
2018-09-22T02:30:41.224Z,98054.69
2018-09-22T02:33:09.876Z,98066.27
2018-09-22T02:35:38.464Z,98061.58
2018-09-22T02:38:07.054Z,98069.65
2018-09-22T02:40:35.632Z,98069.65
2018-09-22T02:43:04.196Z,98073.48
2018-09-22T02:45:32.754Z,98070.10
2018-09-22T02:48:01.348Z,98079.06
2018-09-22T02:50:29.956Z,98065.41
2018-09-22T02:52:58.533Z,98058.19
2018-09-22T02:55:27.039Z,98052.61
2018-09-22T02:57:55.620Z,98053.02
2018-09-22T03:00:24.156Z,98053.02
2018-09-22T03:02:53.800Z,98052.13
2018-09-22T03:05:22.451Z,98052.18
2018-09-22T03:07:51.303Z,98054.29
2018-09-22T03:10:19.977Z,98055.97
2018-09-22T03:12:48.563Z,98059.81
2018-09-22T03:15:17.256Z,98065.41
2018-09-22T03:17:45.819Z,98067.09
2018-09-22T03:20:14.380Z,98073.89
2018-09-22T03:22:42.950Z,98082.90
2018-09-22T03:25:11.549Z,98096.98
2018-09-22T03:27:40.108Z,98088.85
2018-09-22T03:30:08.756Z,98082.05
2018-09-22T03:32:37.203Z,98080.77
2018-09-22T03:35:05.754Z,98088.91
2018-09-22T03:37:34.324Z,98093.14
2018-09-22T03:40:02.900Z,98096.98
2018-09-22T03:42:31.468Z,98088.45
2018-09-22T03:45:00.042Z,98088.45
2018-09-22T03:47:28.605Z,98075.66
2018-09-22T03:49:57.159Z,98061.97
2018-09-22T03:52:25.698Z,98059.86
2018-09-22T03:54:54.340Z,98052.61
2018-09-22T03:57:22.883Z,98057.73
2018-09-22T03:59:51.397Z,98059.81
2018-09-22T04:02:19.926Z,98067.97
2018-09-22T04:04:48.510Z,98061.09
2018-09-22T04:07:17.103Z,98072.20
2018-09-22T04:09:45.664Z,98070.48
2018-09-22T04:12:14.218Z,98064.08
2018-09-22T04:14:42.880Z,98056.84
2018-09-22T04:17:11.449Z,98074.38
2018-09-22T04:19:41.658Z,98077.33
2018-09-22T04:22:10.238Z,98088.85
2018-09-22T04:24:38.844Z,98085.41
2018-09-22T04:27:07.510Z,98087.56
2018-09-22T04:29:36.097Z,98091.41
2018-09-22T04:32:04.587Z,98092.23
2018-09-22T04:34:33.205Z,98083.28
2018-09-22T04:37:01.737Z,98085.41
2018-09-22T04:39:30.224Z,98087.56
2018-09-22T04:41:58.816Z,98080.29
2018-09-22T04:44:27.342Z,98081.11
2018-09-22T04:46:55.871Z,98094.37
2018-09-22T04:49:24.428Z,98098.69
2018-09-22T04:51:53.019Z,98103.33
2018-09-22T04:54:21.530Z,98099.92
2018-09-22T04:56:50.037Z,98094.37
2018-09-22T04:59:18.578Z,98102.05
2018-09-22T05:01:47.167Z,98112.72
2018-09-22T05:04:15.771Z,98120.40
2018-09-22T05:06:44.270Z,98121.67
2018-09-22T05:09:13.422Z,98110.16
2018-09-22T05:11:42.097Z,98097.36
2018-09-22T05:14:10.718Z,98103.33
2018-09-22T05:16:39.238Z,98112.28
2018-09-22T05:19:07.850Z,98114.84
2018-09-22T05:21:36.389Z,98117.84
2018-09-22T05:24:04.951Z,98120.02
2018-09-22T05:26:33.461Z,98121.67
2018-09-22T05:29:01.963Z,98111.44
2018-09-22T05:31:30.491Z,98111.44
2018-09-22T05:33:58.975Z,98114.39
2018-09-22T05:36:27.479Z,98118.23
2018-09-22T05:38:56.007Z,98121.67
2018-09-22T05:41:24.540Z,98124.63
2018-09-22T05:43:53.030Z,98118.23
2018-09-22T05:46:21.571Z,98120.84
2018-09-22T05:48:50.091Z,98119.11
2018-09-22T05:51:18.615Z,98115.28
2018-09-22T05:53:47.196Z,98114.00
2018-09-22T05:56:15.732Z,98112.28
2018-09-22T05:58:44.256Z,98120.84
2018-09-22T06:01:12.773Z,98119.11
2018-09-22T06:03:41.458Z,98122.08
2018-09-22T06:06:09.996Z,98129.36
2018-09-22T06:08:38.760Z,98133.20
2018-09-22T06:11:07.266Z,98140.87
2018-09-22T06:13:35.870Z,98142.16
2018-09-22T06:16:04.435Z,98151.12
2018-09-22T06:18:32.989Z,98150.63
2018-09-22T06:21:01.494Z,98161.81
2018-09-22T06:23:30.105Z,98157.08
2018-09-22T06:25:58.687Z,98165.20
2018-09-22T06:28:27.298Z,98163.43
2018-09-22T06:30:55.836Z,98169.44
2018-09-22T06:33:24.351Z,98174.16
2018-09-22T06:35:52.926Z,98173.27
2018-09-22T06:38:21.486Z,98183.52
2018-09-22T06:40:50.007Z,98187.35
2018-09-22T06:43:18.586Z,98174.55
2018-09-22T06:45:47.245Z,98178.00
2018-09-22T06:48:15.814Z,98179.22
2018-09-22T06:50:44.551Z,98179.28
2018-09-22T06:53:13.063Z,98191.64
2018-09-22T06:55:41.582Z,98188.63
2018-09-22T06:58:10.155Z,98190.48
2018-09-22T07:00:38.768Z,98199.88
2018-09-22T07:03:07.425Z,98204.94
2018-09-22T07:05:37.150Z,98200.21
2018-09-22T07:08:05.726Z,98184.40
2018-09-22T07:10:34.207Z,98194.09
2018-09-22T07:13:02.854Z,98200.49
2018-09-22T07:15:31.327Z,98195.74
2018-09-22T07:17:59.802Z,98199.98
2018-09-22T07:20:28.420Z,98201.59
2018-09-22T07:23:27.493Z,98207.55
2018-09-22T07:25:56.030Z,98214.39
2018-09-22T07:28:24.496Z,98210.50
2018-09-22T07:30:53.015Z,98212.66
2018-09-22T07:33:21.484Z,98210.10
2018-09-22T07:35:49.949Z,98215.62
2018-09-22T07:38:18.428Z,98216.05
2018-09-22T07:40:46.900Z,98221.62
2018-09-22T07:43:15.364Z,98219.45
2018-09-22T07:45:43.926Z,98221.23
2018-09-22T07:48:12.391Z,98215.22
2018-09-22T07:50:40.893Z,98225.01
2018-09-22T07:53:09.389Z,98234.02
2018-09-22T07:55:37.890Z,98239.53
2018-09-22T07:58:06.462Z,98240.42
2018-09-22T08:00:34.981Z,98234.88
2018-09-22T08:03:03.507Z,98234.42
2018-09-22T08:05:31.973Z,98243.44
2018-09-22T08:08:00.442Z,98246.88
2018-09-22T08:10:28.970Z,98247.28
2018-09-22T08:12:57.445Z,98244.32
2018-09-22T08:15:25.906Z,98235.76
2018-09-22T08:17:54.383Z,98237.98
2018-09-22T08:20:22.883Z,98234.54
2018-09-22T08:22:51.353Z,98231.98
2018-09-22T08:25:19.822Z,98222.63
2018-09-22T08:27:48.310Z,98226.46
2018-09-22T08:30:16.777Z,98231.58
2018-09-22T08:32:45.247Z,98223.02
2018-09-22T08:35:13.739Z,98220.91
2018-09-22T08:37:42.237Z,98211.61
2018-09-22T08:40:10.818Z,98196.25
2018-09-22T08:42:39.329Z,98203.11
2018-09-22T08:45:07.852Z,98194.58
2018-09-22T08:47:37.110Z,98192.42
2018-09-22T08:50:05.694Z,98192.02
2018-09-22T08:52:34.128Z,98193.70
2018-09-22T08:55:02.602Z,98186.41
2018-09-22T08:57:31.091Z,98189.03
2018-09-22T09:02:27.060Z,98185.08
2018-09-22T09:07:22.998Z,98185.13
2018-09-22T09:09:51.491Z,98190.69
2018-09-22T09:12:19.973Z,98191.96
2018-09-22T09:14:48.470Z,98201.77
2018-09-22T09:17:16.933Z,98200.86
2018-09-22T09:29:35.199Z,98211.16
2018-09-22T09:32:03.722Z,98203.05
2018-09-22T09:34:32.306Z,98196.65
2018-09-22T09:37:00.808Z,98202.26
2018-09-22T09:39:29.286Z,98196.25
2018-09-22T09:41:57.756Z,98194.98
2018-09-22T09:44:26.228Z,98199.21
2018-09-22T09:46:54.719Z,98191.59
2018-09-22T09:49:23.173Z,98189.86
2018-09-22T09:51:51.672Z,98185.13
2018-09-22T09:54:20.172Z,98183.45
2018-09-22T09:56:48.656Z,98188.58
2018-09-22T09:59:17.147Z,98192.81
2018-09-22T10:01:45.619Z,98180.50
2018-09-22T10:06:41.579Z,98175.77
2018-09-22T10:09:10.642Z,98171.94
2018-09-22T10:11:39.210Z,98169.38
2018-09-22T10:14:07.786Z,98169.77
2018-09-22T10:16:36.443Z,98165.94
2018-09-22T10:19:05.176Z,98162.09
2018-09-22T10:21:34.400Z,98156.06
2018-09-22T10:24:02.989Z,98108.38
2018-09-22T10:26:31.542Z,98144.60
2018-09-22T10:31:27.691Z,98133.87
2018-09-22T10:33:56.425Z,98129.59
2018-09-22T10:36:25.145Z,98129.13
2018-09-22T10:38:53.784Z,98129.13
2018-09-22T10:41:22.322Z,98138.15
2018-09-22T10:43:50.826Z,98140.70
2018-09-22T10:46:19.365Z,98139.42
2018-09-22T10:48:47.935Z,98130.86
2018-09-22T10:51:16.590Z,98133.03
2018-09-22T10:56:12.582Z,98127.48
2018-09-22T10:58:41.113Z,98124.92
2018-09-22T11:01:09.631Z,98121.56
2018-09-22T11:03:38.197Z,98126.69
2018-09-22T11:06:06.865Z,98124.13
2018-09-22T11:08:35.384Z,98113.40
2018-09-22T11:20:53.872Z,98099.38
2018-09-22T11:23:22.372Z,98092.92
2018-09-22T11:28:18.265Z,98087.80
2018-09-22T11:33:14.163Z,98097.25
2018-09-22T11:35:42.655Z,98102.36
2018-09-22T11:38:11.156Z,98107.94
2018-09-22T11:43:07.178Z,98112.61
2018-09-22T11:48:03.076Z,98119.01
2018-09-22T11:50:31.542Z,98103.22
2018-09-22T11:53:00.043Z,98084.02
2018-09-22T12:00:23.410Z,98062.69
2018-09-22T12:02:51.895Z,98060.92
2018-09-22T12:05:20.407Z,98056.29
2018-09-22T12:10:16.311Z,98040.45
2018-09-22T12:17:40.183Z,98013.63
2018-09-22T12:20:08.650Z,98009.78
2018-09-22T12:25:04.563Z,98000.77
2018-09-22T12:27:33.037Z,98008.94
2018-09-22T12:30:01.516Z,98003.33
2018-09-22T12:32:29.992Z,98004.61
2018-09-22T12:34:58.492Z,98003.77
2018-09-22T12:37:26.963Z,97998.64
2018-09-22T12:39:55.438Z,97993.09
2018-09-22T12:44:51.344Z,97991.81
2018-09-22T12:47:19.823Z,97985.41
2018-09-22T12:49:48.316Z,97999.14
2018-09-22T12:54:44.256Z,98001.25
2018-09-22T12:57:12.831Z,97993.14
2018-09-22T13:04:36.186Z,97986.74
2018-09-22T13:09:32.123Z,97988.45
2018-09-22T13:12:00.611Z,97996.13
2018-09-22T13:14:29.084Z,97988.91
2018-09-22T13:16:57.553Z,97980.30
2018-09-22T13:19:26.035Z,97985.90
2018-09-22T13:21:54.502Z,97971.82
2018-09-22T13:24:22.979Z,97962.42
2018-09-22T13:26:51.514Z,97963.66
2018-09-22T13:29:20.033Z,97957.73
2018-09-22T13:31:48.502Z,97958.97
2018-09-22T13:34:16.972Z,97959.81
2018-09-22T13:36:45.450Z,97962.38
2018-09-22T13:39:14.049Z,97957.69
2018-09-22T13:44:10.628Z,97933.38
2018-09-22T13:46:39.219Z,97934.65
2018-09-22T13:49:07.706Z,97924.47
2018-09-22T13:51:36.182Z,97920.14
2018-09-22T13:54:04.673Z,97927.82
2018-09-22T13:56:33.155Z,97911.18
2018-09-22T13:59:01.646Z,97906.50
2018-09-22T14:01:30.123Z,97909.95
2018-09-22T14:03:58.601Z,97900.94
2018-09-22T14:06:27.088Z,97912.89
2018-09-22T14:08:55.569Z,97905.61
2018-09-22T14:11:25.232Z,97902.61
2018-09-22T14:13:54.370Z,97903.55
2018-09-22T14:16:22.858Z,97892.42
2018-09-22T14:18:51.326Z,97878.34
2018-09-22T14:21:19.857Z,97878.73
2018-09-22T14:23:48.383Z,97883.02
2018-09-22T14:26:16.872Z,97881.30
2018-09-22T14:28:45.395Z,97878.73
2018-09-22T14:31:13.894Z,97883.86
2018-09-22T14:33:42.450Z,97883.86
2018-09-22T14:36:10.975Z,97887.25
2018-09-22T14:38:39.448Z,97888.09
2018-09-22T14:41:07.922Z,97887.64
2018-09-22T14:43:36.491Z,97891.53
2018-09-22T14:46:05.008Z,97883.86
2018-09-22T14:48:33.532Z,97881.25
2018-09-22T14:51:01.999Z,97884.69
2018-09-22T14:58:25.579Z,97786.44
2018-09-22T15:00:54.045Z,97917.63
2018-09-22T15:03:22.526Z,97920.63
2018-09-22T15:05:50.995Z,97920.57
2018-09-22T15:08:19.642Z,97919.34
2018-09-22T15:13:15.649Z,97909.91
2018-09-22T15:15:44.123Z,97898.81
2018-09-22T15:18:12.618Z,97693.27
2018-09-22T15:20:41.140Z,97891.53
2018-09-22T15:23:09.681Z,97880.02
2018-09-22T15:25:38.290Z,97878.34
2018-09-22T15:28:06.763Z,97871.06
2018-09-22T15:30:35.384Z,97862.98
2018-09-22T15:35:31.590Z,97856.63
2018-09-22T15:38:00.135Z,97850.68
2018-09-22T15:40:28.697Z,97846.44
2018-09-22T15:42:58.346Z,97851.96
2018-09-22T15:45:26.957Z,97855.80
2018-09-22T15:47:55.605Z,97854.13
2018-09-22T15:50:24.806Z,97852.84
2018-09-22T15:52:53.310Z,97847.72
2018-09-22T15:55:21.856Z,97840.49
2018-09-22T15:57:50.399Z,97838.81
2018-09-22T16:00:18.887Z,97837.05
2018-09-22T16:02:47.478Z,97837.94
2018-09-22T16:05:16.012Z,97845.61
2018-09-22T16:07:44.514Z,97849.45
2018-09-22T16:10:13.104Z,97847.34
2018-09-22T16:12:41.631Z,97855.45
2018-09-22T16:15:10.159Z,97865.69
2018-09-22T16:17:38.641Z,97859.69
2018-09-22T16:20:07.207Z,97845.61
2018-09-22T16:22:35.750Z,97828.14
2018-09-22T16:25:04.271Z,97830.25
2018-09-22T16:27:32.743Z,97830.70
2018-09-22T16:30:01.304Z,97833.26
2018-09-22T16:32:29.778Z,97814.49
2018-09-22T16:34:58.287Z,97814.49
2018-09-22T16:37:26.763Z,97816.17
2018-09-22T16:39:55.255Z,97823.45
2018-09-22T16:42:23.779Z,97843.50
2018-09-22T16:44:52.255Z,97850.78
2018-09-22T16:47:20.730Z,97840.94
2018-09-22T16:49:49.262Z,97836.70
2018-09-22T16:52:20.171Z,97825.58
2018-09-22T16:54:48.737Z,97815.34
2018-09-22T16:57:17.275Z,97803.77
2018-09-22T16:59:45.794Z,97801.70
2018-09-22T17:02:14.311Z,97808.49
2018-09-22T17:04:42.811Z,97783.78
2018-09-22T17:07:11.290Z,97785.86
2018-09-22T17:09:39.774Z,97799.53
2018-09-22T17:12:08.274Z,97801.65
2018-09-22T17:14:36.747Z,97780.29
2018-09-22T17:17:05.235Z,97773.89
2018-09-22T17:19:33.730Z,97761.50
2018-09-22T17:22:02.203Z,97772.16
2018-09-22T17:24:30.670Z,97793.48
2018-09-22T17:26:59.134Z,97810.12
2018-09-22T17:29:27.623Z,97812.29
2018-09-22T17:31:56.102Z,97810.12
2018-09-22T17:34:24.682Z,97808.00
2018-09-22T17:36:53.158Z,97809.28
2018-09-22T17:39:21.649Z,97815.68
2018-09-22T17:41:50.159Z,97820.31
2018-09-22T17:44:18.645Z,97817.80
2018-09-22T17:46:47.127Z,97820.36
2018-09-22T17:49:15.604Z,97811.50
2018-09-22T17:51:44.067Z,97817.45
2018-09-22T17:54:12.576Z,97817.10
2018-09-22T17:56:41.046Z,97818.78
2018-09-22T17:59:09.528Z,97823.45
2018-09-22T18:01:37.995Z,97828.14
2018-09-22T18:04:06.471Z,97822.57
2018-09-22T18:06:34.975Z,97823.86
2018-09-22T18:09:03.647Z,97823.41
2018-09-22T18:11:32.122Z,97820.41
2018-09-22T18:14:00.607Z,97818.69
2018-09-22T18:16:29.095Z,97813.56
2018-09-22T18:18:57.580Z,97813.97
2018-09-22T18:21:26.141Z,97819.97
2018-09-22T18:23:54.639Z,97826.77
2018-09-22T18:26:23.180Z,97837.88
2018-09-22T18:28:51.691Z,97840.45
2018-09-22T18:31:20.189Z,97836.11
2018-09-22T18:33:48.711Z,97843.84
2018-09-22T18:36:17.239Z,97854.52
2018-09-22T18:38:45.744Z,97857.08
2018-09-22T18:41:14.266Z,97861.32
2018-09-22T18:43:42.761Z,97861.32
2018-09-22T18:48:38.688Z,97866.87
2018-09-22T18:51:07.330Z,97863.03
2018-09-22T18:53:35.845Z,97866.44
2018-09-22T18:56:05.664Z,97863.03
2018-09-22T18:58:34.206Z,97862.59
2018-09-22T19:05:57.838Z,97863.03
2018-09-22T19:08:26.441Z,97862.59
2018-09-22T19:10:55.011Z,97860.47
2018-09-22T19:13:27.111Z,97858.71
2018-09-22T19:18:31.872Z,97856.05
2018-09-22T19:22:03.274Z,97848.38
2018-09-22T19:24:50.948Z,97851.36
2018-09-22T19:28:26.308Z,97850.93
2018-09-22T19:30:56.983Z,97862.05
2018-09-22T19:33:31.237Z,97864.21
2018-09-22T19:36:06.182Z,97863.73
2018-09-22T19:38:42.776Z,97866.29
2018-09-22T19:41:17.554Z,97846.64
2018-09-22T19:44:04.703Z,97844.53
2018-09-22T19:46:41.015Z,97842.41
2018-09-22T19:49:16.255Z,97846.69
2018-09-22T19:51:49.691Z,97844.97
2018-09-22T19:54:18.352Z,97841.97
2018-09-22T19:56:46.911Z,97830.06
2018-09-22T19:59:15.478Z,97835.13
2018-09-22T20:01:44.110Z,97830.45
2018-09-22T20:04:12.716Z,97836.01
2018-09-22T20:06:41.218Z,97833.90
2018-09-22T20:09:09.796Z,97844.53
2018-09-22T20:11:38.407Z,97840.30
2018-09-22T20:14:07.084Z,97843.73
2018-09-22T20:16:36.441Z,97843.73
2018-09-22T20:19:05.005Z,97836.01
2018-09-22T20:21:33.638Z,97839.06
2018-09-22T20:24:02.344Z,97829.61
2018-09-22T20:26:30.979Z,97830.45
2018-09-22T20:28:59.523Z,97836.41
2018-09-22T20:31:28.156Z,97845.37
2018-09-22T20:33:56.814Z,97847.53
2018-09-22T20:36:25.469Z,97847.53
2018-09-22T20:38:54.325Z,97844.09
2018-09-22T20:41:23.762Z,97851.41
2018-09-22T20:43:52.374Z,97844.53
2018-09-22T20:46:22.082Z,97848.80
2018-09-22T20:48:50.737Z,97844.97
2018-09-22T20:51:19.259Z,97837.28
2018-09-22T20:53:47.825Z,97840.25
2018-09-22T20:56:16.420Z,97836.45
2018-09-22T20:58:45.026Z,97839.02
2018-09-22T21:01:13.578Z,97841.97
2018-09-22T21:03:42.122Z,97843.69
2018-09-22T21:06:10.658Z,97846.25
2018-09-22T21:08:39.263Z,97850.53
2018-09-22T21:11:08.618Z,97855.70
2018-09-22T21:13:37.323Z,97855.66
2018-09-22T21:16:05.915Z,97851.81
2018-09-22T21:18:34.475Z,97855.30
2018-09-22T21:21:03.049Z,97854.38
2018-09-22T21:23:31.626Z,97858.16
2018-09-22T21:26:00.166Z,97865.89
2018-09-22T21:28:28.754Z,97874.45
2018-09-22T21:30:57.359Z,97872.69
2018-09-22T21:33:25.944Z,97846.30
2018-09-22T21:35:54.561Z,97850.93
2018-09-22T21:38:23.122Z,97853.48
2018-09-22T21:40:51.702Z,97847.09
2018-09-22T21:43:20.516Z,97841.97
2018-09-22T21:45:49.087Z,97839.41
2018-09-22T21:48:17.699Z,97839.84
2018-09-22T21:50:46.284Z,97841.12
2018-09-22T21:53:14.826Z,97848.80
2018-09-22T21:55:43.346Z,97850.08
2018-09-22T21:58:11.963Z,97850.93
2018-09-22T22:00:40.513Z,97868.84
2018-09-22T22:03:09.074Z,97857.28
2018-09-22T22:05:37.587Z,97854.33
2018-09-22T22:08:06.202Z,97860.72
2018-09-22T22:10:34.753Z,97866.29
2018-09-22T22:13:03.376Z,97842.41
2018-09-22T22:15:31.956Z,97833.45
2018-09-22T22:18:00.612Z,97836.41
2018-09-22T22:20:29.142Z,97836.41
2018-09-22T22:22:57.687Z,97828.33
2018-09-22T22:25:27.704Z,97833.84
2018-09-22T22:27:56.267Z,97841.92
2018-09-22T22:30:24.951Z,97850.08
2018-09-22T22:32:53.555Z,97853.44
2018-09-22T22:35:22.203Z,97860.27
2018-09-22T22:37:50.805Z,97862.40
2018-09-22T22:40:19.935Z,97854.33
2018-09-22T22:42:48.463Z,97846.20
2018-09-22T22:45:17.093Z,97846.20
2018-09-22T22:47:45.664Z,97841.08
2018-09-22T22:50:14.236Z,97846.64
2018-09-22T22:52:42.816Z,97852.16
2018-09-22T22:55:11.357Z,97842.75
2018-09-22T22:57:39.993Z,97856.44
2018-09-22T23:00:08.738Z,97826.36
2018-09-22T23:02:38.363Z,97858.56
2018-09-22T23:05:06.978Z,97857.66
2018-09-22T23:07:35.577Z,97861.95
2018-09-22T23:10:04.179Z,97865.79
2018-09-22T23:12:32.767Z,97858.95
2018-09-22T23:15:01.488Z,97851.71
2018-09-22T23:17:30.047Z,97846.59
2018-09-22T23:19:58.659Z,97831.64
2018-09-22T23:22:27.227Z,97840.20
2018-09-22T23:24:55.828Z,97841.03
2018-09-22T23:27:24.382Z,97854.67
2018-09-22T23:29:53.167Z,97858.51
2018-09-22T23:32:21.715Z,97856.38
2018-09-22T23:34:50.262Z,97849.98
2018-09-22T23:37:18.837Z,97862.78
2018-09-22T23:39:47.326Z,97858.95
2018-09-22T23:42:16.439Z,97854.22
2018-09-22T23:44:45.657Z,97860.22
2018-09-22T23:47:14.206Z,97867.91
2018-09-22T23:49:42.729Z,97882.83
2018-09-22T23:52:11.345Z,97885.38
2018-09-22T23:54:39.906Z,97866.19
2018-09-22T23:57:08.414Z,97853.83
2018-09-22T23:59:36.972Z,97851.66
